createdAt,value
2022-11-13T00:05:45.421Z,21.40
2022-11-13T00:08:17.068Z,23.10
2022-11-13T00:10:49.368Z,24.50
2022-11-13T00:13:18.982Z,22.70
2022-11-13T00:15:59.551Z,18.50
2022-11-13T00:18:31.725Z,19.20
2022-11-13T00:21:19.923Z,17.60
2022-11-13T00:23:51.015Z,16.70
2022-11-13T00:26:25.250Z,30.70
2022-11-13T00:29:01.503Z,30.60
2022-11-13T00:31:31.414Z,20.80
2022-11-13T00:34:14.455Z,20.60
2022-11-13T00:36:50.265Z,21.40
2022-11-13T00:39:19.148Z,22.10
2022-11-13T01:21:32.643Z,16.10
2022-11-13T01:24:02.909Z,14.20
2022-11-13T01:26:32.605Z,14.00
2022-11-13T01:29:02.245Z,16.30
2022-11-13T01:31:32.157Z,13.70
2022-11-13T01:34:06.945Z,13.80
2022-11-13T01:36:38.968Z,14.30
2022-11-13T01:39:08.553Z,11.60
2022-11-13T01:41:38.587Z,11.60
2022-11-13T01:44:14.779Z,12.50
2022-11-13T01:46:54.058Z,10.40
2022-11-13T01:49:32.835Z,13.10
2022-11-13T01:52:12.141Z,18.40
2022-11-13T01:54:59.389Z,20.90
2022-11-13T01:57:29.234Z,14.80
2022-11-13T02:00:09.606Z,15.60
2022-11-13T02:02:39.499Z,17.00
2022-11-13T02:05:10.280Z,14.60
2022-11-13T02:07:42.691Z,17.80
2022-11-13T02:10:12.163Z,23.20
2022-11-13T02:12:47.321Z,25.60
2022-11-13T02:15:19.674Z,19.30
2022-11-13T02:18:01.818Z,19.00
2022-11-13T02:20:57.264Z,19.20
2022-11-13T02:23:46.540Z,14.90
2022-11-13T02:26:20.848Z,15.00
2022-11-13T02:28:51.310Z,16.00
2022-11-13T02:31:20.704Z,16.40
2022-11-13T02:33:50.007Z,13.50
2022-11-13T02:36:23.897Z,13.60
2022-11-13T02:38:56.021Z,12.70
2022-11-13T02:41:25.506Z,14.30
2022-11-13T02:43:54.870Z,12.80
2022-11-13T02:46:25.652Z,13.80
2022-11-13T02:48:55.441Z,13.30
2022-11-13T02:51:24.820Z,14.10
2022-11-13T02:53:57.366Z,13.30
2022-11-13T02:56:28.976Z,13.10
2022-11-13T02:58:58.505Z,10.80
2022-11-13T03:01:29.649Z,12.80
2022-11-13T03:03:59.192Z,10.00
2022-11-13T03:06:31.705Z,12.60
2022-11-13T03:09:07.452Z,11.50
2022-11-13T03:11:36.885Z,12.30
2022-11-13T03:14:06.540Z,12.80
2022-11-13T03:16:36.832Z,12.50
2022-11-13T03:19:06.357Z,11.60
2022-11-13T03:21:35.851Z,12.40
2022-11-13T03:24:05.651Z,9.80
2022-11-13T03:26:35.164Z,11.00
2022-11-13T03:29:04.769Z,12.10
2022-11-13T03:31:34.018Z,10.60
2022-11-13T03:34:06.518Z,9.50
2022-11-13T03:36:36.166Z,10.90
2022-11-13T03:39:06.464Z,10.20
2022-11-13T03:41:36.148Z,10.90
2022-11-13T03:44:05.594Z,11.50
2022-11-13T03:46:35.300Z,11.30
2022-11-13T03:49:05.769Z,10.40
2022-11-13T03:51:35.259Z,10.60
2022-11-13T03:54:04.860Z,10.70
2022-11-13T03:56:34.457Z,8.70
2022-11-13T03:59:04.103Z,10.40
2022-11-13T04:01:33.513Z,10.90
2022-11-13T04:04:03.030Z,10.00
2022-11-13T04:06:32.763Z,9.70
2022-11-13T04:09:02.140Z,7.80
2022-11-13T04:11:31.690Z,9.40
2022-11-13T04:14:01.382Z,10.30
2022-11-13T04:16:30.631Z,9.70
2022-11-13T04:19:00.177Z,9.80
2022-11-13T04:21:31.013Z,9.40
2022-11-13T04:24:01.282Z,9.00
2022-11-13T04:26:30.708Z,7.70
2022-11-13T04:29:00.097Z,7.10
2022-11-13T04:31:29.331Z,7.40
2022-11-13T04:33:58.684Z,8.90
2022-11-13T04:36:28.085Z,7.30
2022-11-13T04:39:00.194Z,11.00
2022-11-13T04:41:52.549Z,10.60
2022-11-13T06:02:29.944Z,8.60
2022-11-13T06:04:58.607Z,10.30
2022-11-13T06:07:27.245Z,11.70
2022-11-13T06:09:55.804Z,10.80
2022-11-13T06:12:24.515Z,10.30
2022-11-13T06:14:53.084Z,9.50
2022-11-13T06:17:21.665Z,8.60
2022-11-13T06:19:50.287Z,10.00
2022-11-13T06:22:18.954Z,11.90
2022-11-13T06:24:47.545Z,10.90
2022-11-13T06:27:16.127Z,11.60
2022-11-13T06:29:44.766Z,12.70
2022-11-13T06:32:13.446Z,11.70
2022-11-13T06:34:42.067Z,11.80
2022-11-13T06:37:10.626Z,12.30
2022-11-13T06:39:39.267Z,12.20
2022-11-13T06:42:07.948Z,11.80
2022-11-13T06:44:36.528Z,11.70
2022-11-13T06:47:05.205Z,13.40
2022-11-13T06:49:33.764Z,13.60
2022-11-13T06:52:02.427Z,12.40
2022-11-13T06:54:31.107Z,12.70
2022-11-13T06:56:59.735Z,14.50
2022-11-13T06:59:28.266Z,14.80
2022-11-13T07:01:56.846Z,15.80
2022-11-13T07:04:25.458Z,13.70
2022-11-13T07:06:54.159Z,15.70
2022-11-13T07:09:22.802Z,16.00
2022-11-13T07:11:51.606Z,14.20
2022-11-13T07:14:20.366Z,13.90
2022-11-13T07:17:08.462Z,17.10
2022-11-13T07:19:38.025Z,14.20
2022-11-13T07:22:06.668Z,15.40
2022-11-13T07:24:35.388Z,12.70
2022-11-13T07:27:04.107Z,13.80
2022-11-13T07:29:32.796Z,15.20
2022-11-13T07:32:01.387Z,14.90
2022-11-13T07:34:30.029Z,15.20
2022-11-13T07:36:58.806Z,16.60
2022-11-13T07:39:27.407Z,16.80
2022-11-13T07:41:56.006Z,18.10
2022-11-13T07:44:47.867Z,18.40
2022-11-13T07:47:13.268Z,20.60
2022-11-13T07:49:41.924Z,15.20
2022-11-13T07:52:10.828Z,15.30
2022-11-13T07:54:39.529Z,14.40
2022-11-13T07:57:08.427Z,15.70
2022-11-13T07:59:37.120Z,11.70
2022-11-13T08:02:06.071Z,17.30
2022-11-13T08:04:34.952Z,13.70
2022-11-13T08:07:03.711Z,16.40
2022-11-13T08:09:32.567Z,16.60
2022-11-13T08:12:01.338Z,17.60
2022-11-13T08:14:30.306Z,17.00
2022-11-13T08:16:59.067Z,14.90
2022-11-13T08:19:27.869Z,14.30
2022-11-13T08:21:56.688Z,14.70
2022-11-13T08:24:25.448Z,17.30
2022-11-13T08:26:54.147Z,14.70
2022-11-13T08:29:22.776Z,16.80
2022-11-13T08:31:51.689Z,15.10
2022-11-13T08:34:20.347Z,14.00
2022-11-13T08:36:49.347Z,14.70
2022-11-13T08:39:18.126Z,14.80
2022-11-13T08:41:46.852Z,11.30
2022-11-13T08:44:15.632Z,15.80
2022-11-13T08:46:44.197Z,16.10
2022-11-13T08:49:13.047Z,15.80
2022-11-13T08:51:41.807Z,16.20
2022-11-13T08:54:10.569Z,17.20
2022-11-13T08:56:39.547Z,12.00
2022-11-13T08:59:10.448Z,15.70
2022-11-13T09:01:39.128Z,17.20
2022-11-13T09:04:08.047Z,18.10
2022-11-13T09:06:37.016Z,16.60
2022-11-13T09:09:07.311Z,16.10
2022-11-13T09:11:36.168Z,15.70
2022-11-13T09:14:04.828Z,17.40
2022-11-13T09:16:33.527Z,16.00
2022-11-13T09:19:02.109Z,15.70
2022-11-13T09:21:31.707Z,14.00
2022-11-13T09:24:00.249Z,15.50
2022-11-13T09:26:28.927Z,13.70
2022-11-13T09:28:57.488Z,14.90
2022-11-13T09:31:26.187Z,14.40
2022-11-13T09:33:54.811Z,14.70
2022-11-13T09:36:23.827Z,13.50
2022-11-13T09:38:52.535Z,15.00
2022-11-13T09:41:26.688Z,16.70
2022-11-13T09:44:03.267Z,16.70
2022-11-13T09:46:51.969Z,16.30
2022-11-13T09:49:37.138Z,14.80
2022-11-13T09:52:37.787Z,15.10
2022-11-13T09:55:09.587Z,12.80
2022-11-13T09:57:53.247Z,15.70
2022-11-13T10:00:23.328Z,17.30
2022-11-13T10:04:03.281Z,17.20
2022-11-13T10:06:40.798Z,17.20
2022-11-13T10:10:01.791Z,19.20
2022-11-13T10:12:34.090Z,14.50
2022-11-13T10:15:06.508Z,17.80
2022-11-13T10:17:45.013Z,17.00
2022-11-13T10:20:25.969Z,19.80
2022-11-13T10:23:05.308Z,19.10
2022-11-13T10:25:38.127Z,19.80
2022-11-13T10:31:13.648Z,23.60
2022-11-13T10:33:42.287Z,21.10
2022-11-13T10:37:06.815Z,19.50
2022-11-13T10:39:46.087Z,22.50
2022-11-13T10:42:37.019Z,21.50
2022-11-13T10:45:13.855Z,20.70
2022-11-13T10:48:07.966Z,16.90
2022-11-13T10:50:36.928Z,18.30
2022-11-13T10:53:18.230Z,22.00
2022-11-13T10:55:52.164Z,22.00
2022-11-13T10:58:21.098Z,22.20
2022-11-13T11:00:50.367Z,20.70
2022-11-13T11:03:25.800Z,22.70
2022-11-13T11:06:05.448Z,22.10
2022-11-13T11:08:36.428Z,22.90
2022-11-13T11:11:37.368Z,23.70
2022-11-13T11:14:31.167Z,25.40
2022-11-13T11:17:04.730Z,17.90
2022-11-13T11:19:38.797Z,16.00
2022-11-13T11:22:18.612Z,21.50
2022-11-13T11:25:06.928Z,20.80
2022-11-13T11:27:52.721Z,21.30
2022-11-13T11:30:30.087Z,25.40
2022-11-13T11:33:26.248Z,20.30
2022-11-13T11:36:09.388Z,23.40
2022-11-13T11:38:56.148Z,23.30
2022-11-13T11:41:37.027Z,18.40
2022-11-13T11:44:20.608Z,22.10
2022-11-13T11:46:49.348Z,21.50
2022-11-13T11:49:26.689Z,23.10
2022-11-13T11:52:28.567Z,21.50
2022-11-13T11:55:41.727Z,19.60
2022-11-13T11:59:09.248Z,23.90
2022-11-13T12:02:21.728Z,24.20
2022-11-13T12:05:08.293Z,22.10
2022-11-13T12:08:16.031Z,23.30
2022-11-13T12:11:30.068Z,17.50
2022-11-13T12:14:17.989Z,21.60
2022-11-13T12:17:16.870Z,19.80
2022-11-13T12:19:59.333Z,20.40
2022-11-13T12:23:16.435Z,21.00
2022-11-13T12:26:07.347Z,22.80
2022-11-13T12:29:11.248Z,18.20
2022-11-13T12:32:07.175Z,19.90
2022-11-13T12:34:47.848Z,19.20
2022-11-13T12:38:00.928Z,21.70
2022-11-13T12:40:51.347Z,21.60
2022-11-13T12:43:57.728Z,20.50
2022-11-13T12:46:38.848Z,20.90
2022-11-13T12:49:36.415Z,20.20
2022-11-13T12:52:21.587Z,22.60
2022-11-13T12:54:52.587Z,29.00
2022-11-13T12:57:30.478Z,29.70
2022-11-13T13:00:28.796Z,27.80
2022-11-13T13:03:41.729Z,25.40
2022-11-13T13:06:50.861Z,28.30
2022-11-13T13:09:51.368Z,27.20
2022-11-13T13:12:53.249Z,29.30
2022-11-13T13:15:39.806Z,28.80
2022-11-13T13:18:17.368Z,28.30
2022-11-13T13:21:11.236Z,29.70
2022-11-13T13:23:50.467Z,28.80
2022-11-13T13:26:30.486Z,30.10
2022-11-13T13:29:24.235Z,28.40
2022-11-13T13:32:20.679Z,29.70
2022-11-13T13:35:09.228Z,29.60
2022-11-13T13:37:50.768Z,28.50
2022-11-13T13:40:44.466Z,29.50
2022-11-13T13:43:57.889Z,31.80
2022-11-13T13:46:32.873Z,33.70
2022-11-13T13:49:23.394Z,33.70
2022-11-13T13:51:58.190Z,30.30
2022-11-13T13:54:31.732Z,32.00
2022-11-13T13:57:01.992Z,32.60
2022-11-13T13:59:38.036Z,31.60
2022-11-13T14:02:19.137Z,32.20
2022-11-13T14:04:55.406Z,31.60
2022-11-13T14:07:29.363Z,29.50
2022-11-13T14:10:09.328Z,31.70
2022-11-13T14:12:44.146Z,31.30
2022-11-13T14:15:42.949Z,24.90
2022-11-13T14:18:18.016Z,30.60
2022-11-13T14:20:55.946Z,29.50
2022-11-13T14:23:35.453Z,31.70
2022-11-13T14:26:07.123Z,29.20
2022-11-13T14:28:58.426Z,29.40
2022-11-13T14:31:33.238Z,29.80
2022-11-13T14:34:11.027Z,30.20
2022-11-13T14:36:41.265Z,29.90
2022-11-13T14:39:27.166Z,29.30
2022-11-13T14:42:01.130Z,31.80
2022-11-13T14:44:35.109Z,31.90
2022-11-13T14:47:20.675Z,29.60
2022-11-13T14:49:49.627Z,29.90
2022-11-13T14:52:30.148Z,29.10
2022-11-13T14:55:15.114Z,32.50
2022-11-13T14:57:50.908Z,31.60
2022-11-13T15:00:28.305Z,33.10
2022-11-13T15:02:57.145Z,31.30
2022-11-13T15:05:26.087Z,32.70
2022-11-13T15:07:57.006Z,31.80
2022-11-13T15:10:30.151Z,31.70
2022-11-13T15:12:58.871Z,30.60
2022-11-13T15:15:33.249Z,28.90
2022-11-13T15:18:03.048Z,32.40
2022-11-13T15:20:32.608Z,31.90
2022-11-13T15:23:01.908Z,30.40
2022-11-13T15:25:30.606Z,32.00
2022-11-13T15:27:59.247Z,32.50
2022-11-13T15:30:27.912Z,31.80
2022-11-13T15:32:57.527Z,32.30
2022-11-13T15:35:26.386Z,31.40
2022-11-13T15:37:54.948Z,33.60
2022-11-13T15:40:23.729Z,33.20
2022-11-13T15:42:52.570Z,33.10
2022-11-13T15:45:22.171Z,31.80
2022-11-13T15:47:51.747Z,32.10
2022-11-13T15:50:21.567Z,31.00
2022-11-13T15:52:53.548Z,34.20
2022-11-13T15:55:32.560Z,33.80
2022-11-13T15:58:03.307Z,34.30
2022-11-13T16:00:33.089Z,32.40
2022-11-13T16:03:04.688Z,31.70
2022-11-13T16:05:33.406Z,35.00
2022-11-13T16:08:02.066Z,32.20
2022-11-13T16:10:33.008Z,33.20
2022-11-13T16:13:03.772Z,34.10
2022-11-13T16:15:32.427Z,35.10
2022-11-13T16:18:02.408Z,34.50
2022-11-13T16:20:31.128Z,33.20
2022-11-13T16:22:59.906Z,33.50
2022-11-13T16:25:28.749Z,33.50
2022-11-13T16:27:57.429Z,32.30
2022-11-13T16:30:28.215Z,32.60
2022-11-13T16:32:56.847Z,33.20
2022-11-13T16:35:25.508Z,28.30
2022-11-13T16:37:54.108Z,28.30
2022-11-13T16:40:26.570Z,30.70
2022-11-13T16:42:55.316Z,29.40
2022-11-13T16:45:24.139Z,28.30
2022-11-13T16:47:52.847Z,28.10
2022-11-13T16:50:25.378Z,23.50
2022-11-13T16:52:54.209Z,21.10
2022-11-13T16:55:23.593Z,22.60
2022-11-13T16:57:52.259Z,23.20
2022-11-13T17:00:21.128Z,26.10
2022-11-13T17:02:53.049Z,18.00
2022-11-13T17:05:24.136Z,26.60
2022-11-13T17:07:59.486Z,16.80
2022-11-13T17:10:32.834Z,24.90
2022-11-13T17:13:01.912Z,19.70
2022-11-13T17:15:32.050Z,24.80
2022-11-13T17:18:00.968Z,27.60
2022-11-13T17:20:33.066Z,25.20
2022-11-13T17:23:02.377Z,28.90
2022-11-13T17:25:31.166Z,31.20
2022-11-13T17:27:59.786Z,32.10
2022-11-13T17:30:28.460Z,30.50
2022-11-13T17:32:57.168Z,22.20
2022-11-13T17:35:26.047Z,26.50
2022-11-13T17:37:54.686Z,29.50
2022-11-13T17:40:23.531Z,19.60
2022-11-13T17:42:52.247Z,30.00
2022-11-13T17:45:21.029Z,27.50
2022-11-13T17:47:50.406Z,28.90
2022-11-13T17:50:19.785Z,31.70
2022-11-13T17:52:49.686Z,30.50
2022-11-13T17:55:18.591Z,28.20
2022-11-13T17:57:47.291Z,28.70
2022-11-13T18:00:19.069Z,30.10
2022-11-13T18:02:47.849Z,31.40
2022-11-13T18:05:16.831Z,29.70
2022-11-13T18:07:45.486Z,30.10
2022-11-13T18:10:14.126Z,28.30
2022-11-13T18:12:42.808Z,29.60
2022-11-13T18:15:11.535Z,30.50
2022-11-13T18:17:40.427Z,29.00
2022-11-13T18:20:10.206Z,29.90
2022-11-13T18:22:38.947Z,33.20
2022-11-13T18:25:08.294Z,31.50
2022-11-13T18:27:37.747Z,32.60
2022-11-13T18:30:07.919Z,30.80
2022-11-13T18:32:36.628Z,31.30
2022-11-13T18:35:06.229Z,37.70
2022-11-13T18:37:35.227Z,31.00
2022-11-13T18:40:05.408Z,26.70
2022-11-13T18:42:34.068Z,31.80
2022-11-13T18:45:05.869Z,39.00
2022-11-13T18:47:35.107Z,39.50
2022-11-13T18:50:04.130Z,38.90
2022-11-13T18:52:33.189Z,34.50
2022-11-13T18:55:02.567Z,36.60
2022-11-13T18:57:31.228Z,35.50
2022-11-13T19:00:00.036Z,33.10
2022-11-13T19:02:29.367Z,34.20
2022-11-13T19:04:58.108Z,37.00
2022-11-13T19:07:26.879Z,39.60
2022-11-13T19:09:55.569Z,39.40
2022-11-13T19:12:24.347Z,41.10
2022-11-13T19:14:52.969Z,39.60
2022-11-13T19:17:22.328Z,38.90
2022-11-13T19:19:51.948Z,41.50
2022-11-13T19:22:21.108Z,37.20
2022-11-13T19:24:51.028Z,34.60
2022-11-13T19:27:20.788Z,26.20
2022-11-13T19:29:50.068Z,27.50
2022-11-13T19:32:20.343Z,29.80
2022-11-13T19:34:49.311Z,32.10
2022-11-13T19:37:19.731Z,28.60
2022-11-13T19:39:49.328Z,27.30
2022-11-13T19:42:18.970Z,21.80
2022-11-13T19:44:48.923Z,29.40
2022-11-13T19:47:18.593Z,32.20
2022-11-13T19:49:48.677Z,29.30
2022-11-13T19:52:19.432Z,25.40
2022-11-13T19:54:49.471Z,22.40
2022-11-13T19:57:18.926Z,31.60
2022-11-13T19:59:48.729Z,32.50
2022-11-13T20:02:18.420Z,29.70
2022-11-13T20:04:48.448Z,24.40
2022-11-13T20:07:17.966Z,32.40
2022-11-13T20:09:46.691Z,25.10
2022-11-13T20:12:15.307Z,28.60
2022-11-13T20:14:43.910Z,26.20
2022-11-13T20:17:12.957Z,31.40
2022-11-13T20:19:41.929Z,33.50
2022-11-13T20:22:10.628Z,34.80
2022-11-13T20:24:39.936Z,32.80
2022-11-13T20:27:08.787Z,25.20
2022-11-13T20:29:38.398Z,31.70
2022-11-13T20:32:07.079Z,31.90
2022-11-13T20:34:35.759Z,30.20
2022-11-13T20:37:04.356Z,32.10
2022-11-13T20:39:32.932Z,35.80
2022-11-13T20:42:01.647Z,34.80
2022-11-13T20:44:30.370Z,33.10
2022-11-13T20:46:58.968Z,35.60
2022-11-13T20:49:27.589Z,22.00
2022-11-13T20:51:57.419Z,21.80
2022-11-13T20:54:26.289Z,26.60
2022-11-13T20:56:55.350Z,27.00
2022-11-13T20:59:24.088Z,29.90
2022-11-13T21:01:52.924Z,29.00
2022-11-13T21:04:21.789Z,32.00
2022-11-13T21:06:50.672Z,20.00
2022-11-13T21:09:19.335Z,22.50
2022-11-13T21:11:47.948Z,26.00
2022-11-13T21:14:16.578Z,32.30
2022-11-13T21:16:45.287Z,34.40
2022-11-13T21:19:14.133Z,34.50
2022-11-13T21:21:42.916Z,29.80
2022-11-13T21:24:11.657Z,27.50
2022-11-13T21:26:40.470Z,30.50
2022-11-13T21:29:09.232Z,26.40
2022-11-13T21:31:37.865Z,33.10
2022-11-13T21:34:06.807Z,34.60
2022-11-13T21:36:35.621Z,31.60
2022-11-13T21:39:04.490Z,33.50
2022-11-13T21:41:33.450Z,30.40
2022-11-13T21:44:06.507Z,31.10
2022-11-13T21:46:38.539Z,32.70
2022-11-13T21:49:11.528Z,32.70
2022-11-13T21:51:43.195Z,33.90
2022-11-13T21:54:11.988Z,38.50
2022-11-13T21:56:42.287Z,40.00
2022-11-13T21:59:10.979Z,39.10
2022-11-13T22:01:39.794Z,38.90
2022-11-13T22:04:08.649Z,35.90
2022-11-13T22:06:37.467Z,37.20
2022-11-13T22:09:26.596Z,35.80
2022-11-13T22:11:55.348Z,36.50
2022-11-13T22:14:23.948Z,36.40
2022-11-13T22:16:52.668Z,38.20
2022-11-13T22:19:27.074Z,30.40
2022-11-13T22:21:57.147Z,26.50
2022-11-13T22:24:25.850Z,20.60
2022-11-13T22:26:54.500Z,26.00
2022-11-13T22:29:23.196Z,28.00
2022-11-13T22:31:51.887Z,20.90
2022-11-13T22:34:21.614Z,21.50
2022-11-13T22:36:50.507Z,16.30
2022-11-13T22:39:19.968Z,19.40
2022-11-13T22:41:49.231Z,27.10
2022-11-13T22:44:18.826Z,25.70
2022-11-13T22:46:47.818Z,28.30
2022-11-13T22:49:16.578Z,22.00
2022-11-13T22:51:45.128Z,22.30
2022-11-13T22:54:13.907Z,23.90
2022-11-13T22:56:42.908Z,19.80
